Time,TemperatureF,DewpointF,PressureIn,WindDirection,WindDirectionDegrees,WindSpeedMPH,WindSpeedGustMPH,Humidity,HourlyPrecipIn,Conditions,Clouds,dailyrainin,SoftwareType,DateUTC
2013-04-10 00:01:00,47.0,23.0,30.02,NNE,14,5.0,15.0,38,0.00,,,0.01,,2013-04-10 07:01:00,
2013-04-10 00:12:00,47.0,23.0,30.02,NNE,14,5.0,15.0,38,0.00,,,0.01,,2013-04-10 07:12:00,
2013-04-10 00:22:00,47.0,23.0,30.03,ENE,70,0.0,5.0,38,0.00,,,0.01,,2013-04-10 07:22:00,
2013-04-10 00:42:00,47.0,25.0,30.03,NNW,340,0.0,3.0,41,0.00,,,0.01,,2013-04-10 07:42:00,
2013-04-10 00:52:00,45.0,24.0,30.04,North,9,4.0,9.0,44,0.00,,,0.01,,2013-04-10 07:52:00,
2013-04-10 01:02:00,46.0,23.0,30.04,NNW,340,1.0,10.0,40,0.00,,,0.01,,2013-04-10 08:02:00,
2013-04-10 01:12:00,46.0,23.0,30.04,NNW,340,1.0,10.0,40,0.00,,,0.01,,2013-04-10 08:12:00,
2013-04-10 01:21:00,48.0,19.0,30.04,North,355,4.0,7.0,31,0.00,,,0.01,,2013-04-10 08:21:00,
2013-04-10 01:31:00,48.0,18.0,30.04,North,355,6.0,7.0,30,0.00,,,0.01,,2013-04-10 08:31:00,
2013-04-10 01:42:00,48.0,18.0,30.04,North,355,6.0,7.0,30,0.00,,,0.01,,2013-04-10 08:42:00,
2013-04-10 01:52:00,46.0,18.0,30.04,North,355,3.0,7.0,32,0.00,,,0.01,,2013-04-10 08:52:00,
2013-04-10 02:01:00,46.0,20.0,30.03,NNW,345,1.0,5.0,35,0.00,,,0.01,,2013-04-10 09:01:00,
2013-04-10 02:12:00,45.0,18.0,30.04,North,360,2.0,6.0,33,0.00,,,0.01,,2013-04-10 09:12:00,
2013-04-10 02:22:00,45.0,18.0,30.04,North,360,2.0,6.0,33,0.00,,,0.01,,2013-04-10 09:22:00,
2013-04-10 02:32:00,44.0,18.0,30.04,North,5,3.0,6.0,35,0.00,,,0.01,,2013-04-10 09:32:00,
2013-04-10 02:42:00,43.0,16.0,30.03,North,355,4.0,7.0,33,0.00,,,0.01,,2013-04-10 09:42:00,
2013-04-10 02:52:00,43.0,16.0,30.03,North,355,4.0,7.0,33,0.00,,,0.01,,2013-04-10 09:52:00,
2013-04-10 03:02:00,41.0,21.0,30.03,NNW,346,6.0,8.0,44,0.00,,,0.01,,2013-04-10 10:02:00,
2013-04-10 03:12:00,41.0,20.0,30.03,NNW,342,2.0,4.0,42,0.00,,,0.01,,2013-04-10 10:12:00,
2013-04-10 03:23:00,41.0,20.0,30.03,NNW,342,2.0,4.0,42,0.00,,,0.01,,2013-04-10 10:23:00,
2013-04-10 03:32:00,41.0,20.0,30.03,North,355,2.0,6.0,43,0.00,,,0.01,,2013-04-10 10:32:00,
2013-04-10 03:42:00,41.0,20.0,30.03,North,355,2.0,6.0,43,0.00,,,0.01,,2013-04-10 10:42:00,
2013-04-10 03:52:00,41.0,19.0,30.03,North,355,3.0,6.0,41,0.00,,,0.01,,2013-04-10 10:52:00,
2013-04-10 04:02:00,40.0,20.0,30.04,North,5,3.0,6.0,45,0.00,,,0.01,,2013-04-10 11:02:00,
2013-04-10 04:12:00,40.0,20.0,30.04,North,5,3.0,6.0,45,0.00,,,0.01,,2013-04-10 11:12:00,
2013-04-10 04:22:00,40.0,20.0,30.04,North,5,3.0,6.0,45,0.00,,,0.01,,2013-04-10 11:22:00,
2013-04-10 04:32:00,40.0,19.0,30.05,North,360,3.0,5.0,43,0.00,,,0.01,,2013-04-10 11:32:00,
2013-04-10 04:42:00,40.0,19.0,30.05,North,360,3.0,5.0,43,0.00,,,0.01,,2013-04-10 11:42:00,
2013-04-10 04:53:00,40.0,19.0,30.05,North,360,3.0,5.0,43,0.00,,,0.01,,2013-04-10 11:53:00,
2013-04-10 05:02:00,41.0,19.0,30.05,NNW,338,0.0,2.0,41,0.00,,,0.01,,2013-04-10 12:02:00,
2013-04-10 05:12:00,41.0,19.0,30.05,NNW,338,0.0,2.0,41,0.00,,,0.01,,2013-04-10 12:12:00,
2013-04-10 05:22:00,42.0,18.0,30.04,North,360,2.0,6.0,37,0.00,,,0.01,,2013-04-10 12:22:00,
2013-04-10 05:32:00,42.0,18.0,30.05,North,355,1.0,3.0,38,0.00,,,0.01,,2013-04-10 12:32:00,
2013-04-10 05:42:00,42.0,18.0,30.05,North,355,1.0,3.0,38,0.00,,,0.01,,2013-04-10 12:42:00,
2013-04-10 05:52:00,43.0,16.0,30.05,NNE,13,1.0,4.0,33,0.00,,,0.01,,2013-04-10 12:52:00,
2013-04-10 06:02:00,44.0,18.0,30.05,NNW,344,3.0,6.0,35,0.00,,,0.01,,2013-04-10 13:02:00,
2013-04-10 06:11:00,44.0,18.0,30.05,NNW,344,3.0,6.0,35,0.00,,,0.01,,2013-04-10 13:11:00,
2013-04-10 06:22:00,45.0,16.0,30.06,North,5,1.0,5.0,31,0.00,,,0.01,,2013-04-10 13:22:00,
2013-04-10 06:32:00,45.0,15.0,30.06,North,5,1.0,4.0,29,0.00,,,0.01,,2013-04-10 13:32:00,
2013-04-10 06:41:00,45.0,15.0,30.06,North,5,1.0,4.0,29,0.00,,,0.01,,2013-04-10 13:41:00,
2013-04-10 06:53:00,45.0,17.0,30.06,North,11,1.0,3.0,32,0.00,,,0.01,,2013-04-10 13:53:00,
2013-04-10 07:01:00,43.0,17.0,30.07,North,355,1.0,5.0,34,0.00,,,0.01,,2013-04-10 14:01:00,
2013-04-10 07:11:00,43.0,17.0,30.07,North,355,1.0,5.0,34,0.00,,,0.01,,2013-04-10 14:11:00,
2013-04-10 07:21:00,41.0,20.0,30.08,North,351,4.0,7.0,42,0.00,,,0.00,,2013-04-10 14:21:00,
2013-04-10 07:32:00,40.0,20.0,30.09,North,355,5.0,6.0,44,0.00,,,0.00,,2013-04-10 14:32:00,
2013-04-10 07:42:00,42.0,20.0,30.10,North,360,1.0,5.0,41,0.00,,,0.00,,2013-04-10 14:42:00,
2013-04-10 08:02:00,41.0,21.0,30.11,North,350,0.0,1.0,44,0.00,,,0.00,,2013-04-10 15:02:00,
2013-04-10 08:11:00,41.0,21.0,30.11,North,350,0.0,1.0,44,0.00,,,0.00,,2013-04-10 15:11:00,
2013-04-10 08:21:00,43.0,19.0,30.11,NNE,22,3.0,6.0,38,0.00,,,0.00,,2013-04-10 15:21:00,
2013-04-10 08:32:00,47.0,17.0,30.11,NE,47,2.0,4.0,30,0.00,,,0.00,,2013-04-10 15:32:00,
2013-04-10 08:42:00,47.0,17.0,30.11,NE,47,2.0,4.0,30,0.00,,,0.00,,2013-04-10 15:42:00,
2013-04-10 08:52:00,48.0,19.0,30.11,NE,54,0.0,3.0,31,0.00,,,0.00,,2013-04-10 15:52:00,
2013-04-10 09:02:00,51.0,21.0,30.12,NE,54,0.0,1.0,31,0.00,,,0.00,,2013-04-10 16:02:00,
2013-04-10 09:12:00,51.0,21.0,30.12,NE,54,0.0,1.0,31,0.00,,,0.00,,2013-04-10 16:12:00,
2013-04-10 09:22:00,52.0,17.0,30.12,SSE,163,0.0,6.0,25,0.00,,,0.00,,2013-04-10 16:22:00,
2013-04-10 09:32:00,54.0,18.0,30.12,South,169,4.0,6.0,24,0.00,,,0.00,,2013-04-10 16:32:00,
2013-04-10 09:42:00,54.0,18.0,30.12,South,169,4.0,6.0,24,0.00,,,0.00,,2013-04-10 16:42:00,
2013-04-10 09:52:00,54.0,18.0,30.12,South,190,3.0,7.0,24,0.00,,,0.00,,2013-04-10 16:52:00,
2013-04-10 10:02:00,54.0,17.0,30.13,SSE,148,1.0,8.0,23,0.00,,,0.00,,2013-04-10 17:02:00,
2013-04-10 10:12:00,55.0,17.0,30.13,South,183,2.0,4.0,22,0.00,,,0.00,,2013-04-10 17:12:00,
2013-04-10 10:22:00,55.0,17.0,30.13,South,183,2.0,4.0,22,0.00,,,0.00,,2013-04-10 17:22:00,
2013-04-10 10:32:00,55.0,20.0,30.13,SSE,149,1.0,7.0,25,0.00,,,0.00,,2013-04-10 17:32:00,
2013-04-10 10:42:00,55.0,20.0,30.13,SSE,149,1.0,7.0,25,0.00,,,0.00,,2013-04-10 17:42:00,
2013-04-10 10:52:00,56.0,22.0,30.13,SSW,194,2.0,8.0,26,0.00,,,0.00,,2013-04-10 17:52:00,
2013-04-10 11:02:00,56.0,21.0,30.13,SSW,207,2.0,6.0,25,0.00,,,0.00,,2013-04-10 18:02:00,
2013-04-10 11:22:00,57.0,22.0,30.13,SSW,196,5.0,8.0,25,0.00,,,0.00,,2013-04-10 18:22:00,
2013-04-10 11:32:00,57.0,22.0,30.13,South,190,3.0,7.0,25,0.00,,,0.00,,2013-04-10 18:32:00,
2013-04-10 11:43:00,57.0,22.0,30.13,South,190,3.0,7.0,25,0.00,,,0.00,,2013-04-10 18:43:00,
2013-04-10 11:52:00,58.0,20.0,30.13,SE,133,5.0,10.0,23,0.00,,,0.00,,2013-04-10 18:52:00,
2013-04-10 12:02:00,59.0,26.0,30.12,SW,219,0.0,5.0,28,0.00,,,0.00,,2013-04-10 19:02:00,
2013-04-10 12:12:00,59.0,25.0,30.12,SW,234,1.0,7.0,27,0.00,,,0.00,,2013-04-10 19:12:00,
2013-04-10 12:22:00,59.0,25.0,30.12,SW,234,1.0,7.0,27,0.00,,,0.00,,2013-04-10 19:22:00,
2013-04-10 12:32:00,60.0,27.0,30.11,SSW,193,1.0,7.0,28,0.00,,,0.00,,2013-04-10 19:32:00,
2013-04-10 12:41:00,61.0,28.0,30.11,SSE,159,4.0,7.0,28,0.00,,,0.00,,2013-04-10 19:41:00,
2013-04-10 12:52:00,61.0,28.0,30.11,SSE,159,4.0,7.0,28,0.00,,,0.00,,2013-04-10 19:52:00,
2013-04-10 13:02:00,61.0,32.0,30.10,South,171,5.0,12.0,33,0.00,,,0.00,,2013-04-10 20:02:00,
2013-04-10 13:11:00,62.0,31.0,30.10,SSE,163,3.0,9.0,31,0.00,,,0.00,,2013-04-10 20:11:00,
2013-04-10 13:22:00,62.0,31.0,30.10,SSE,163,3.0,9.0,31,0.00,,,0.00,,2013-04-10 20:22:00,
2013-04-10 13:32:00,62.0,33.0,30.10,South,184,2.0,8.0,34,0.00,,,0.00,,2013-04-10 20:32:00,
2013-04-10 13:42:00,63.0,36.0,30.09,NNW,340,8.0,14.0,36,0.00,,,0.00,,2013-04-10 20:42:00,
2013-04-10 14:01:00,63.0,37.0,30.08,NW,315,7.0,14.0,38,0.00,,,0.00,,2013-04-10 21:01:00,
2013-04-10 14:11:00,63.0,37.0,30.08,North,355,6.0,15.0,38,0.00,,,0.00,,2013-04-10 21:11:00,
2013-04-10 14:21:00,63.0,37.0,30.08,North,355,6.0,15.0,38,0.00,,,0.00,,2013-04-10 21:21:00,
2013-04-10 14:32:00,62.0,35.0,30.08,North,355,8.0,14.0,36,0.00,,,0.00,,2013-04-10 21:32:00,
2013-04-10 14:42:00,62.0,35.0,30.08,North,355,8.0,14.0,36,0.00,,,0.00,,2013-04-10 21:42:00,
2013-04-10 14:53:00,62.0,35.0,30.08,NNW,340,8.0,14.0,36,0.00,,,0.00,,2013-04-10 21:53:00,
2013-04-10 15:02:00,62.0,35.0,30.08,North,355,7.0,17.0,36,0.00,,,0.00,,2013-04-10 22:02:00,
2013-04-10 15:12:00,61.0,34.0,30.07,North,9,10.0,17.0,36,0.00,,,0.00,,2013-04-10 22:12:00,
2013-04-10 15:22:00,61.0,34.0,30.07,North,9,10.0,17.0,36,0.00,,,0.00,,2013-04-10 22:22:00,
2013-04-10 15:33:00,61.0,33.0,30.06,NNW,336,6.0,18.0,35,0.00,,,0.00,,2013-04-10 22:33:00,
2013-04-10 15:42:00,61.0,33.0,30.06,NNW,336,6.0,18.0,35,0.00,,,0.00,,2013-04-10 22:42:00,
2013-04-10 15:52:00,61.0,32.0,30.06,North,360,10.0,18.0,34,0.00,,,0.00,,2013-04-10 22:52:00,
2013-04-10 16:02:00,61.0,32.0,30.06,North,360,13.0,21.0,33,0.00,,,0.00,,2013-04-10 23:02:00,
2013-04-10 16:12:00,61.0,32.0,30.06,North,360,13.0,21.0,33,0.00,,,0.00,,2013-04-10 23:12:00,
2013-04-10 16:22:00,61.0,32.0,30.06,North,360,13.0,21.0,33,0.00,,,0.00,,2013-04-10 23:22:00,
2013-04-10 16:32:00,61.0,30.0,30.05,North,360,10.0,17.0,31,0.00,,,0.00,,2013-04-10 23:32:00,
2013-04-10 16:42:00,61.0,30.0,30.05,North,360,10.0,17.0,31,0.00,,,0.00,,2013-04-10 23:42:00,
2013-04-10 16:52:00,61.0,31.0,30.04,NNE,28,12.0,19.0,32,0.00,,,0.00,,2013-04-10 23:52:00,
2013-04-10 17:02:00,60.0,33.0,30.04,NNE,24,14.0,20.0,36,0.00,,,0.00,,2013-04-11 00:02:00,
2013-04-10 17:11:00,60.0,32.0,30.04,NNE,16,14.0,22.0,35,0.00,,,0.00,,2013-04-11 00:11:00,
2013-04-10 17:22:00,60.0,32.0,30.04,NNE,16,14.0,22.0,35,0.00,,,0.00,,2013-04-11 00:22:00,
2013-04-10 17:31:00,59.0,31.0,30.04,North,9,14.0,24.0,35,0.00,,,0.00,,2013-04-11 00:31:00,
2013-04-10 17:42:00,59.0,31.0,30.04,NNE,24,14.0,23.0,34,0.00,,,0.00,,2013-04-11 00:42:00,
2013-04-10 17:51:00,59.0,31.0,30.04,NNE,24,14.0,23.0,34,0.00,,,0.00,,2013-04-11 00:51:00,
2013-04-10 18:02:00,59.0,30.0,30.04,North,360,15.0,23.0,33,0.00,,,0.00,,2013-04-11 01:02:00,
2013-04-10 18:11:00,57.0,28.0,30.03,NNW,344,12.0,29.0,33,0.00,,,0.00,,2013-04-11 01:11:00,
2013-04-10 18:21:00,57.0,28.0,30.03,NNW,344,12.0,29.0,33,0.00,,,0.00,,2013-04-11 01:21:00,
2013-04-10 18:31:00,57.0,27.0,30.04,NNW,344,15.0,22.0,32,0.00,,,0.00,,2013-04-11 01:31:00,
2013-04-10 18:42:00,56.0,27.0,30.03,NNW,345,13.0,23.0,33,0.00,,,0.00,,2013-04-11 01:42:00,
2013-04-10 18:52:00,56.0,27.0,30.03,NNW,345,13.0,23.0,33,0.00,,,0.00,,2013-04-11 01:52:00,
2013-04-10 19:01:00,56.0,28.0,30.03,NNW,346,12.0,21.0,34,0.00,,,0.00,,2013-04-11 02:01:00,
2013-04-10 19:12:00,56.0,28.0,30.03,NNW,345,14.0,22.0,34,0.00,,,0.00,,2013-04-11 02:12:00,
2013-04-10 19:21:00,56.0,28.0,30.03,NNW,345,14.0,22.0,34,0.00,,,0.00,,2013-04-11 02:21:00,
2013-04-10 19:31:00,56.0,29.0,30.03,North,11,16.0,28.0,35,0.00,,,0.00,,2013-04-11 02:31:00,
2013-04-10 19:41:00,56.0,29.0,30.03,North,11,16.0,28.0,35,0.00,,,0.00,,2013-04-11 02:41:00,
2013-04-10 19:52:00,56.0,29.0,30.03,North,355,15.0,25.0,36,0.00,,,0.00,,2013-04-11 02:52:00,
2013-04-10 20:02:00,56.0,29.0,30.03,North,350,11.0,23.0,36,0.00,,,0.00,,2013-04-11 03:02:00,
2013-04-10 20:11:00,56.0,29.0,30.03,NNW,340,16.0,25.0,35,0.00,,,0.00,,2013-04-11 03:11:00,
2013-04-10 20:22:00,56.0,29.0,30.03,NNW,340,16.0,25.0,35,0.00,,,0.00,,2013-04-11 03:22:00,
2013-04-10 20:32:00,56.0,28.0,30.03,North,5,17.0,40.0,34,0.00,,,0.00,,2013-04-11 03:32:00,
2013-04-10 20:42:00,56.0,29.0,30.04,North,355,16.0,30.0,35,0.00,,,0.00,,2013-04-11 03:42:00,
2013-04-10 20:53:00,56.0,29.0,30.04,North,355,16.0,30.0,35,0.00,,,0.00,,2013-04-11 03:53:00,
2013-04-10 21:03:00,55.0,29.0,30.05,North,360,14.0,24.0,36,0.00,,,0.00,,2013-04-11 04:03:00,
2013-04-10 21:12:00,55.0,29.0,30.06,NNW,329,17.0,28.0,36,0.00,,,0.00,,2013-04-11 04:12:00,
2013-04-10 21:22:00,55.0,29.0,30.06,NNW,329,17.0,28.0,36,0.00,,,0.00,,2013-04-11 04:22:00,
2013-04-10 21:33:00,56.0,29.0,30.05,NNW,342,16.0,33.0,35,0.00,,,0.00,,2013-04-11 04:33:00,
2013-04-10 21:42:00,56.0,29.0,30.05,NNW,342,16.0,33.0,35,0.00,,,0.00,,2013-04-11 04:42:00,
2013-04-10 21:52:00,55.0,29.0,30.06,NNW,345,15.0,29.0,36,0.00,,,0.00,,2013-04-11 04:52:00,
2013-04-10 22:02:00,55.0,29.0,30.05,NNW,340,12.0,27.0,36,0.00,,,0.00,,2013-04-11 05:02:00,
2013-04-10 22:12:00,55.0,29.0,30.05,NNW,329,17.0,31.0,36,0.00,,,0.00,,2013-04-11 05:12:00,
2013-04-10 22:22:00,55.0,29.0,30.05,NNW,329,17.0,31.0,36,0.00,,,0.00,,2013-04-11 05:22:00,
2013-04-10 22:32:00,55.0,29.0,30.05,NNW,329,17.0,31.0,36,0.00,,,0.00,,2013-04-11 05:32:00,
2013-04-10 22:42:00,55.0,29.0,30.05,NNW,329,17.0,31.0,36,0.00,,,0.00,,2013-04-11 05:42:00,
2013-04-10 22:52:00,55.0,29.0,30.05,NNE,15,17.0,31.0,37,0.00,,,0.00,,2013-04-11 05:52:00,
2013-04-10 23:02:00,55.0,29.0,30.05,NNE,15,17.0,31.0,37,0.00,,,0.00,,2013-04-11 06:02:00,
2013-04-10 23:12:00,55.0,29.0,30.05,NNE,15,17.0,31.0,37,0.00,,,0.00,,2013-04-11 06:12:00,
2013-04-10 23:21:00,55.0,29.0,30.04,North,5,14.0,26.0,36,0.00,,,0.00,,2013-04-11 06:21:00,
2013-04-10 23:32:00,55.0,29.0,30.03,NW,324,17.0,34.0,37,0.00,,,0.00,,2013-04-11 06:32:00,
2013-04-10 23:42:00,55.0,29.0,30.03,NW,324,17.0,34.0,37,0.00,,,0.00,,2013-04-11 06:42:00,
2013-04-10 23:52:00,56.0,30.0,30.03,NW,323,16.0,28.0,37,0.00,,,0.00,,2013-04-11 06:52:00,